createdAt,value
2019-05-05T00:02:28.090Z,3.80
2019-05-05T00:04:58.178Z,3.70
2019-05-05T00:07:28.301Z,3.80
2019-05-05T00:09:57.108Z,3.80
2019-05-05T00:12:39.300Z,3.20
2019-05-05T00:15:14.488Z,6.27
2019-05-05T00:17:44.857Z,4.30
2019-05-05T00:20:14.503Z,3.63
2019-05-05T00:22:43.031Z,3.30
2019-05-05T00:25:11.529Z,3.37
2019-05-05T00:27:39.973Z,4.53
2019-05-05T00:30:08.557Z,4.00
2019-05-05T00:32:37.034Z,5.23
2019-05-05T00:35:06.897Z,5.03
2019-05-05T00:37:35.327Z,3.50
2019-05-05T00:40:07.037Z,4.00
2019-05-05T00:42:35.707Z,5.43
2019-05-05T00:45:06.467Z,6.67
2019-05-05T00:47:45.355Z,5.50
2019-05-05T00:50:16.254Z,5.67
2019-05-05T00:52:44.702Z,5.70
2019-05-05T00:55:15.159Z,5.80
2019-05-05T00:57:45.340Z,5.80
2019-05-05T01:00:34.929Z,6.20
2019-05-05T01:03:04.749Z,5.53
2019-05-05T01:05:51.125Z,5.87
2019-05-05T01:08:21.213Z,5.37
2019-05-05T01:10:49.705Z,4.73
2019-05-05T01:13:18.224Z,4.20
2019-05-05T01:15:46.674Z,4.50
2019-05-05T01:18:15.292Z,3.60
2019-05-05T01:20:44.871Z,4.00
2019-05-05T01:23:15.065Z,5.60
2019-05-05T01:25:45.523Z,5.23
2019-05-05T01:28:14.375Z,5.30
2019-05-05T01:30:44.837Z,4.33
2019-05-05T01:33:14.922Z,4.67
2019-05-05T01:35:44.763Z,4.83
2019-05-05T01:38:20.949Z,4.10
2019-05-05T01:41:05.822Z,4.27
2019-05-05T01:43:34.690Z,4.30
2019-05-05T01:46:05.054Z,3.90
2019-05-05T01:48:35.094Z,4.00
2019-05-05T01:51:05.038Z,3.57
2019-05-05T01:53:34.950Z,3.97
2019-05-05T01:56:04.894Z,4.00
2019-05-05T01:58:34.901Z,3.97
2019-05-05T02:01:05.014Z,3.50
2019-05-05T02:03:35.008Z,3.50
2019-05-05T02:06:05.225Z,3.77
2019-05-05T02:08:34.911Z,3.90
2019-05-05T02:11:05.242Z,3.70
2019-05-05T02:13:34.642Z,3.53
2019-05-05T02:16:04.579Z,4.27
2019-05-05T02:18:34.585Z,3.97
2019-05-05T02:21:05.712Z,4.27
2019-05-05T02:23:35.326Z,3.53
2019-05-05T02:26:04.929Z,4.20
2019-05-05T02:28:35.050Z,4.30
2019-05-05T02:31:25.398Z,3.67
2019-05-05T02:33:52.839Z,4.00
2019-05-05T02:36:21.301Z,4.27
2019-05-05T02:38:49.722Z,3.90
2019-05-05T02:41:18.151Z,3.93
2019-05-05T02:43:46.911Z,4.33
2019-05-05T02:46:17.825Z,3.63
2019-05-05T02:48:49.779Z,4.53
2019-05-05T02:51:18.362Z,4.20
2019-05-05T02:53:49.891Z,4.20
2019-05-05T02:56:23.789Z,4.20
2019-05-05T02:58:54.013Z,4.30
2019-05-05T03:01:30.649Z,3.53
2019-05-05T03:04:00.301Z,4.00
2019-05-05T03:06:29.047Z,4.60
2019-05-05T03:08:57.838Z,4.20
2019-05-05T03:11:27.872Z,4.37
2019-05-05T03:13:58.220Z,4.20
2019-05-05T03:16:34.112Z,3.57
2019-05-05T03:19:03.551Z,4.10
2019-05-05T03:21:33.536Z,3.97
2019-05-05T03:24:03.744Z,3.80
2019-05-05T03:26:34.021Z,4.27
2019-05-05T03:29:04.822Z,4.13
2019-05-05T03:31:35.160Z,4.20
2019-05-05T03:34:05.911Z,4.27
2019-05-05T03:36:34.382Z,4.43
2019-05-05T03:39:05.286Z,4.40
2019-05-05T03:41:41.424Z,3.90
2019-05-05T03:44:13.980Z,3.70
2019-05-05T03:46:43.878Z,4.63
2019-05-05T03:49:14.037Z,3.97
2019-05-05T03:51:43.864Z,3.90
2019-05-05T03:54:14.457Z,3.70
2019-05-05T03:56:44.156Z,4.20
2019-05-05T03:59:14.161Z,3.63
2019-05-05T04:01:47.179Z,3.70
2019-05-05T04:04:30.067Z,3.83
2019-05-05T04:07:00.226Z,4.03
2019-05-05T04:09:28.655Z,3.87
2019-05-05T04:11:57.076Z,4.10
2019-05-05T04:14:25.546Z,3.70
2019-05-05T04:16:55.608Z,4.27
2019-05-05T04:19:31.386Z,4.60
2019-05-05T04:21:59.814Z,4.10
2019-05-05T04:24:28.515Z,3.77
2019-05-05T04:26:56.938Z,3.83
2019-05-05T04:29:25.357Z,3.80
2019-05-05T04:31:54.121Z,4.00
2019-05-05T04:34:24.129Z,3.90
2019-05-05T04:36:54.498Z,4.17
2019-05-05T04:39:23.674Z,3.77
2019-05-05T04:41:54.017Z,3.73
2019-05-05T04:44:23.627Z,4.10
2019-05-05T04:46:54.581Z,4.00
2019-05-05T04:49:24.757Z,3.90
2019-05-05T04:51:57.375Z,3.90
2019-05-05T04:54:27.450Z,4.17
2019-05-05T04:56:55.874Z,4.13
2019-05-05T04:59:24.386Z,3.87
2019-05-05T05:01:54.767Z,3.83
2019-05-05T05:04:39.711Z,3.73
2019-05-05T05:07:08.143Z,3.97
2019-05-05T05:09:36.827Z,3.47
2019-05-05T05:12:05.763Z,3.53
2019-05-05T05:14:35.277Z,4.07
2019-05-05T05:17:05.426Z,3.10
2019-05-05T05:19:33.872Z,3.50
2019-05-05T05:22:04.747Z,3.57
2019-05-05T05:24:34.297Z,3.80
2019-05-05T05:27:04.815Z,3.37
2019-05-05T05:29:34.537Z,3.20
2019-05-05T05:32:04.175Z,3.10
2019-05-05T05:34:34.449Z,3.47
2019-05-05T05:37:04.224Z,3.57
2019-05-05T05:39:50.809Z,3.57
2019-05-05T05:42:19.318Z,3.13
2019-05-05T05:45:07.474Z,3.83
2019-05-05T05:47:37.552Z,3.03
2019-05-05T05:50:17.648Z,3.20
2019-05-05T05:52:46.108Z,3.13
2019-05-05T05:55:14.662Z,3.20
2019-05-05T05:57:43.890Z,3.50
2019-05-05T06:00:14.497Z,3.30
2019-05-05T06:02:43.977Z,3.20
2019-05-05T06:05:14.572Z,3.00
2019-05-05T06:07:44.236Z,3.40
2019-05-05T06:10:23.717Z,3.20
2019-05-05T06:12:45.033Z,2.90
2019-05-05T06:15:14.246Z,2.70
2019-05-05T06:17:43.514Z,2.77
2019-05-05T06:20:14.372Z,2.67
2019-05-05T06:22:44.539Z,2.60
2019-05-05T06:25:16.044Z,3.50
2019-05-05T06:27:44.591Z,3.47
2019-05-05T06:30:13.830Z,3.60
2019-05-05T06:32:43.724Z,3.60
2019-05-05T06:35:13.877Z,3.60
2019-05-05T06:37:54.627Z,3.60
2019-05-05T06:40:44.375Z,3.67
2019-05-05T06:43:26.367Z,3.70
2019-05-05T06:46:05.356Z,3.80
2019-05-05T06:48:34.387Z,3.00
2019-05-05T06:51:03.960Z,3.20
2019-05-05T06:53:34.232Z,3.07
2019-05-05T06:56:04.059Z,3.23
2019-05-05T06:58:34.580Z,2.63
2019-05-05T07:01:03.656Z,2.70
2019-05-05T07:03:33.706Z,2.90
2019-05-05T07:06:04.340Z,2.60
2019-05-05T07:08:34.595Z,2.40
2019-05-05T07:11:04.112Z,2.57
2019-05-05T07:13:33.912Z,2.30
2019-05-05T07:16:04.596Z,3.87
2019-05-05T07:18:34.126Z,2.83
2019-05-05T07:21:03.624Z,3.20
2019-05-05T07:23:34.072Z,3.30
2019-05-05T07:26:04.154Z,2.67
2019-05-05T07:28:34.173Z,2.53
2019-05-05T07:31:04.410Z,2.37
2019-05-05T07:33:34.628Z,2.33
2019-05-05T07:36:16.945Z,4.00
2019-05-05T07:38:47.081Z,2.77
2019-05-05T07:41:15.512Z,2.27
2019-05-05T07:43:43.937Z,2.53
2019-05-05T07:46:13.532Z,2.23
2019-05-05T07:48:44.079Z,2.30
2019-05-05T07:51:14.209Z,3.90
2019-05-05T07:53:44.311Z,2.70
2019-05-05T07:56:14.521Z,2.10
2019-05-05T07:58:43.884Z,1.90
2019-05-05T08:01:14.081Z,2.20
2019-05-05T08:03:44.625Z,2.20
2019-05-05T08:06:14.516Z,1.60
2019-05-05T08:08:44.284Z,1.87
2019-05-05T08:11:14.769Z,2.20
2019-05-05T08:13:44.285Z,1.43
2019-05-05T08:16:24.241Z,1.73
2019-05-05T08:18:54.425Z,1.90
2019-05-05T08:21:24.053Z,2.20
2019-05-05T08:23:54.221Z,1.90
2019-05-05T08:26:40.270Z,2.10
2019-05-05T08:29:10.366Z,2.70
2019-05-05T08:31:44.268Z,2.40
2019-05-05T08:34:14.269Z,1.70
2019-05-05T08:36:44.613Z,1.83
2019-05-05T08:39:14.247Z,2.40
2019-05-05T08:41:45.329Z,2.63
2019-05-05T08:44:14.271Z,3.00
2019-05-05T08:46:44.615Z,2.60
2019-05-05T08:49:13.738Z,2.77
2019-05-05T08:51:44.196Z,2.57
2019-05-05T08:54:14.368Z,2.30
2019-05-05T08:56:44.569Z,2.60
2019-05-05T08:59:14.302Z,2.87
2019-05-05T09:01:44.877Z,3.00
2019-05-05T09:04:14.197Z,3.03
2019-05-05T09:06:43.819Z,2.90
2019-05-05T09:09:14.345Z,3.77
2019-05-05T09:11:43.766Z,3.20
2019-05-05T09:14:14.686Z,3.03
2019-05-05T09:16:44.612Z,3.03
2019-05-05T09:19:14.666Z,3.90
2019-05-05T09:21:44.738Z,4.83
2019-05-05T09:24:24.970Z,5.50
2019-05-05T09:27:10.476Z,4.50
2019-05-05T09:29:40.580Z,4.93
2019-05-05T09:32:09.056Z,4.73
2019-05-05T09:34:37.513Z,4.50
2019-05-05T09:37:06.333Z,4.50
2019-05-05T09:39:35.187Z,4.70
2019-05-05T09:42:04.192Z,4.37
2019-05-05T09:44:34.626Z,3.50
2019-05-05T09:47:04.762Z,4.13
2019-05-05T09:49:33.925Z,4.10
2019-05-05T09:52:04.760Z,4.13
2019-05-05T09:54:34.527Z,4.13
2019-05-05T09:57:04.535Z,4.70
2019-05-05T09:59:34.606Z,4.83
2019-05-05T10:02:04.437Z,4.80
2019-05-05T10:04:34.100Z,4.63
2019-05-05T10:07:04.458Z,4.20
2019-05-05T10:09:34.484Z,4.83
2019-05-05T10:12:04.726Z,4.40
2019-05-05T10:14:34.164Z,4.20
2019-05-05T10:17:04.659Z,3.90
2019-05-05T10:19:33.047Z,4.13
2019-05-05T10:22:03.874Z,4.37
2019-05-05T10:24:36.268Z,5.63
2019-05-05T10:27:05.045Z,4.57
2019-05-05T10:29:33.496Z,5.00
2019-05-05T10:32:04.397Z,3.83
2019-05-05T10:34:33.509Z,5.17
2019-05-05T10:37:04.040Z,4.63
2019-05-05T10:39:36.595Z,4.33
2019-05-05T10:42:05.053Z,4.60
2019-05-05T10:44:34.044Z,3.70
2019-05-05T10:47:04.557Z,4.63
2019-05-05T10:49:33.683Z,2.97
2019-05-05T10:52:03.680Z,3.60
2019-05-05T10:54:41.602Z,3.23
2019-05-05T10:57:03.988Z,3.10
2019-05-05T10:59:34.369Z,3.17
2019-05-05T11:02:05.014Z,3.20
2019-05-05T11:04:33.647Z,2.40
2019-05-05T11:07:03.971Z,2.80
2019-05-05T11:09:33.744Z,3.90
2019-05-05T11:12:02.317Z,3.63
2019-05-05T11:14:30.748Z,4.03
2019-05-05T11:16:59.188Z,4.53
2019-05-05T11:19:27.709Z,5.27
2019-05-05T11:21:56.133Z,4.23
2019-05-05T11:24:24.607Z,4.33
2019-05-05T11:26:54.001Z,4.83
2019-05-05T11:29:24.083Z,4.57
2019-05-05T11:31:52.664Z,4.60
2019-05-05T11:34:24.699Z,5.03
2019-05-05T11:36:57.510Z,4.27
2019-05-05T11:39:26.002Z,5.10
2019-05-05T11:41:54.826Z,4.87
2019-05-05T11:44:24.270Z,4.50
2019-05-05T11:46:54.748Z,4.40
2019-05-05T11:49:24.448Z,4.63
2019-05-05T11:51:54.172Z,4.13
2019-05-05T11:54:24.510Z,3.80
2019-05-05T11:56:53.908Z,4.53
2019-05-05T11:59:23.783Z,5.00
2019-05-05T12:01:54.670Z,3.90
2019-05-05T12:04:23.931Z,4.30
2019-05-05T12:06:52.557Z,4.07
2019-05-05T12:09:24.802Z,4.60
2019-05-05T12:11:54.489Z,3.97
2019-05-05T12:14:27.077Z,4.20
2019-05-05T12:16:54.938Z,4.10
2019-05-05T12:19:24.328Z,4.47
2019-05-05T12:21:54.739Z,4.07
2019-05-05T12:24:24.920Z,4.30
2019-05-05T12:27:00.497Z,4.33
2019-05-05T12:29:28.944Z,3.43
2019-05-05T12:31:57.373Z,4.10
2019-05-05T12:34:25.830Z,3.83
2019-05-05T12:36:54.265Z,4.77
2019-05-05T12:39:22.816Z,4.60
2019-05-05T12:41:51.244Z,4.30
2019-05-05T12:44:23.499Z,4.27
2019-05-05T12:46:53.201Z,4.43
2019-05-05T12:49:24.809Z,4.03
2019-05-05T12:51:53.981Z,4.90
2019-05-05T12:54:24.409Z,5.07
2019-05-05T12:56:53.887Z,4.17
2019-05-05T12:59:24.939Z,4.50
2019-05-05T13:01:54.652Z,4.20
2019-05-05T13:04:24.617Z,4.70
2019-05-05T13:06:54.061Z,4.80
2019-05-05T13:09:24.398Z,3.90
2019-05-05T13:11:54.180Z,4.40
2019-05-05T13:14:22.770Z,4.40
2019-05-05T13:16:53.948Z,3.90
2019-05-05T13:19:24.195Z,4.43
2019-05-05T13:22:03.674Z,4.60
2019-05-05T13:24:36.457Z,4.43
2019-05-05T13:27:10.010Z,4.20
2019-05-05T13:29:36.770Z,4.50
2019-05-05T13:32:05.502Z,4.17
2019-05-05T13:34:33.989Z,4.67
2019-05-05T13:37:03.590Z,3.90
2019-05-05T13:39:33.925Z,4.93
2019-05-05T13:42:04.401Z,3.63
2019-05-05T13:44:49.396Z,3.70
2019-05-05T13:47:18.094Z,4.10
2019-05-05T13:49:46.557Z,3.80
2019-05-05T13:52:14.995Z,3.93
2019-05-05T13:54:43.908Z,3.60
2019-05-05T13:57:14.226Z,3.20
2019-05-05T13:59:44.476Z,3.33
2019-05-05T14:02:13.733Z,3.30
2019-05-05T14:04:43.797Z,3.13
2019-05-05T14:07:12.474Z,3.00
2019-05-05T14:09:41.166Z,3.20
2019-05-05T14:12:09.613Z,3.37
2019-05-05T14:14:38.065Z,3.53
2019-05-05T14:17:06.494Z,3.23
2019-05-05T14:19:34.945Z,3.93
2019-05-05T14:22:04.470Z,3.30
2019-05-05T14:24:34.738Z,3.50
2019-05-05T14:27:04.490Z,2.90
2019-05-05T14:29:49.853Z,3.17
2019-05-05T14:32:19.921Z,3.67
2019-05-05T14:34:50.243Z,3.43
2019-05-05T14:37:29.042Z,3.77
2019-05-05T14:39:57.493Z,5.47
2019-05-05T14:42:26.017Z,3.13
2019-05-05T14:44:54.659Z,3.30
2019-05-05T14:47:24.535Z,3.60
2019-05-05T14:49:54.059Z,5.30
2019-05-05T14:52:24.617Z,3.80
2019-05-05T14:54:54.439Z,4.07
2019-05-05T14:57:24.766Z,4.27
2019-05-05T14:59:54.007Z,3.67
2019-05-05T15:02:24.253Z,3.60
2019-05-05T15:04:53.947Z,2.90
2019-05-05T15:07:29.981Z,2.87
2019-05-05T15:10:01.734Z,3.80
2019-05-05T15:12:34.053Z,4.33
2019-05-05T15:15:04.196Z,4.10
2019-05-05T15:17:33.738Z,4.80
2019-05-05T15:20:02.345Z,3.90
2019-05-05T15:22:30.798Z,4.80
2019-05-05T15:24:59.230Z,3.60
2019-05-05T15:27:27.782Z,3.67
2019-05-05T15:29:56.456Z,4.17
2019-05-05T15:32:24.890Z,3.63
2019-05-05T15:34:54.551Z,3.90
2019-05-05T15:37:23.775Z,3.70
2019-05-05T15:39:53.612Z,4.17
2019-05-05T15:42:22.540Z,3.80
2019-05-05T15:44:51.214Z,3.73
2019-05-05T15:47:19.667Z,4.53
2019-05-05T15:49:48.155Z,4.27
2019-05-05T15:52:16.586Z,4.60
2019-05-05T15:54:45.018Z,4.57
2019-05-05T15:57:14.913Z,4.10
2019-05-05T15:59:43.746Z,4.53
2019-05-05T16:02:13.384Z,2.73
2019-05-05T16:04:41.992Z,4.83
2019-05-05T16:07:10.670Z,4.30
2019-05-05T16:09:39.369Z,3.57
2019-05-05T16:12:08.075Z,4.90
2019-05-05T16:14:38.174Z,5.23
2019-05-05T16:17:11.194Z,4.67
2019-05-05T16:19:46.129Z,3.90
2019-05-05T16:22:18.806Z,3.87
2019-05-05T16:24:51.324Z,4.67
2019-05-05T16:27:22.106Z,3.93
2019-05-05T16:29:49.229Z,4.23
2019-05-05T16:32:21.812Z,3.47
2019-05-05T16:34:47.805Z,4.10
2019-05-05T16:37:16.256Z,4.17
2019-05-05T16:39:44.705Z,3.37
2019-05-05T16:42:13.569Z,3.40
2019-05-05T16:44:43.413Z,3.70
2019-05-05T16:47:13.668Z,3.80
2019-05-05T16:49:44.364Z,3.80
2019-05-05T16:52:14.545Z,3.77
2019-05-05T16:54:44.745Z,3.07
2019-05-05T16:57:14.403Z,3.37
2019-05-05T16:59:44.218Z,2.83
2019-05-05T17:02:13.932Z,2.77
2019-05-05T17:04:43.386Z,3.37
2019-05-05T17:07:11.890Z,3.17
2019-05-05T17:09:40.341Z,2.63
2019-05-05T17:12:08.796Z,3.67
2019-05-05T17:14:54.460Z,2.70
2019-05-05T17:17:30.353Z,2.53
2019-05-05T17:20:00.437Z,3.13
2019-05-05T17:22:36.211Z,3.13
2019-05-05T17:25:06.687Z,3.50
2019-05-05T17:27:47.849Z,3.47
2019-05-05T17:30:07.228Z,3.10
2019-05-05T17:32:35.657Z,3.20
2019-05-05T17:35:04.998Z,3.00
2019-05-05T17:37:33.709Z,3.03
2019-05-05T17:40:12.568Z,3.43
2019-05-05T17:42:59.026Z,3.20
2019-05-05T17:45:29.113Z,3.60
2019-05-05T17:47:59.178Z,3.50
2019-05-05T17:50:45.485Z,3.20
2019-05-05T17:53:27.629Z,3.80
2019-05-05T17:55:57.971Z,3.00
2019-05-05T17:58:27.705Z,2.80
2019-05-05T18:00:57.865Z,3.60
2019-05-05T18:03:26.298Z,3.73
2019-05-05T18:05:59.089Z,3.50
2019-05-05T18:08:44.628Z,3.50
2019-05-05T18:11:17.755Z,3.07
2019-05-05T18:13:47.819Z,3.50
2019-05-05T18:16:17.902Z,4.00
2019-05-05T18:18:46.581Z,3.50
2019-05-05T18:21:15.082Z,3.83
2019-05-05T18:23:43.873Z,3.43
2019-05-05T18:26:13.643Z,3.40
2019-05-05T18:28:44.358Z,3.40
2019-05-05T18:31:13.892Z,3.40
2019-05-05T18:33:42.486Z,3.37
2019-05-05T18:36:11.189Z,3.60
2019-05-05T18:38:39.684Z,3.50
2019-05-05T18:41:13.994Z,3.60
2019-05-05T18:43:44.225Z,4.33
2019-05-05T18:46:13.674Z,3.50
2019-05-05T18:48:42.197Z,3.87
2019-05-05T18:51:10.701Z,3.90
2019-05-05T18:53:39.150Z,3.90
2019-05-05T18:56:07.573Z,4.13
2019-05-05T18:58:36.426Z,3.67
2019-05-05T19:01:09.009Z,3.67
2019-05-05T19:03:44.811Z,3.27
2019-05-05T19:06:14.885Z,3.80
2019-05-05T19:08:53.703Z,3.50
2019-05-05T19:11:15.138Z,3.30
2019-05-05T19:13:44.707Z,3.80
2019-05-05T19:16:14.229Z,3.50
2019-05-05T19:18:44.771Z,3.80
2019-05-05T19:21:14.992Z,3.63
2019-05-05T19:23:44.739Z,3.30
2019-05-05T19:26:14.547Z,4.13
2019-05-05T19:28:47.291Z,3.70
2019-05-05T19:31:14.036Z,3.33
2019-05-05T19:33:42.816Z,3.60
2019-05-05T19:36:11.331Z,3.03
2019-05-05T19:38:39.782Z,3.43
2019-05-05T19:41:08.205Z,3.50
2019-05-05T19:43:38.298Z,3.40
2019-05-05T19:46:08.609Z,3.83
2019-05-05T19:48:37.290Z,3.70
2019-05-05T19:51:10.311Z,3.37
2019-05-05T19:53:38.754Z,3.87
2019-05-05T19:56:07.201Z,3.97
2019-05-05T19:58:36.598Z,3.87
2019-05-05T20:01:05.230Z,3.97
2019-05-05T20:03:35.136Z,3.83
2019-05-05T20:06:04.862Z,4.10
2019-05-05T20:08:40.967Z,3.43
2019-05-05T20:11:04.796Z,3.37
2019-05-05T20:13:33.585Z,3.33
2019-05-05T20:16:06.411Z,3.23
2019-05-05T20:18:34.873Z,3.70
2019-05-05T20:21:06.894Z,3.63
2019-05-05T20:23:34.057Z,3.63
2019-05-05T20:26:04.014Z,3.33
2019-05-05T20:28:33.855Z,3.50
2019-05-05T20:31:03.638Z,3.70
2019-05-05T20:33:48.497Z,3.67
2019-05-05T20:36:24.288Z,3.20
2019-05-05T20:38:54.944Z,3.63
2019-05-05T20:41:24.847Z,3.50
2019-05-05T20:43:54.305Z,3.23
2019-05-05T20:46:23.683Z,3.30
2019-05-05T20:48:54.301Z,3.20
2019-05-05T20:51:24.254Z,2.87
2019-05-05T20:53:54.198Z,3.47
2019-05-05T20:56:22.947Z,3.57
2019-05-05T20:58:51.457Z,4.23
2019-05-05T21:01:19.884Z,3.20
2019-05-05T21:03:48.328Z,3.33
2019-05-05T21:06:16.762Z,3.63
2019-05-05T21:08:45.479Z,4.10
2019-05-05T21:11:14.318Z,3.77
2019-05-05T21:13:45.136Z,4.50
2019-05-05T21:16:14.111Z,3.83
2019-05-05T21:18:42.868Z,3.20
2019-05-05T21:21:13.869Z,3.13
2019-05-05T21:23:44.110Z,3.50
2019-05-05T21:26:14.191Z,3.37
2019-05-05T21:28:44.468Z,3.07
2019-05-05T21:31:14.468Z,3.30
2019-05-05T21:33:45.089Z,3.00
2019-05-05T21:36:14.696Z,3.90
2019-05-05T21:38:43.925Z,3.50
2019-05-05T21:41:13.818Z,3.20
2019-05-05T21:43:44.677Z,3.43
2019-05-05T21:46:12.858Z,3.40
2019-05-05T21:48:41.288Z,3.90
2019-05-05T21:51:17.069Z,3.40
2019-05-05T21:53:47.166Z,3.43
2019-05-05T21:56:35.315Z,3.40
2019-05-05T21:59:04.182Z,3.37
2019-05-05T22:01:40.026Z,3.60
2019-05-05T22:04:04.187Z,3.57
2019-05-05T22:06:33.657Z,4.17
2019-05-05T22:09:03.980Z,3.40
2019-05-05T22:11:32.322Z,3.37
2019-05-05T22:14:00.779Z,3.70
2019-05-05T22:16:29.203Z,3.90
2019-05-05T22:18:57.633Z,3.43
2019-05-05T22:21:27.717Z,3.80
2019-05-05T22:23:57.777Z,3.43
2019-05-05T22:26:26.561Z,3.43
2019-05-05T22:28:55.230Z,4.23
2019-05-05T22:31:23.855Z,3.67
2019-05-05T22:33:52.538Z,3.57
2019-05-05T22:36:21.005Z,3.70
2019-05-05T22:38:49.489Z,3.50
2019-05-05T22:41:17.975Z,3.60
2019-05-05T22:43:46.693Z,3.83
2019-05-05T22:46:15.124Z,3.70
2019-05-05T22:48:44.015Z,3.27
2019-05-05T22:51:14.421Z,4.10
2019-05-05T22:53:44.041Z,4.07
2019-05-05T22:56:14.630Z,3.83
2019-05-05T22:58:43.934Z,3.50
2019-05-05T23:01:13.639Z,3.83
2019-05-05T23:03:52.712Z,3.57
2019-05-05T23:06:24.613Z,3.77
2019-05-05T23:08:54.636Z,3.47
2019-05-05T23:11:23.946Z,3.97
2019-05-05T23:13:54.100Z,3.17
2019-05-05T23:16:26.493Z,3.83
2019-05-05T23:18:54.836Z,4.23
2019-05-05T23:21:27.925Z,4.10
2019-05-05T23:24:14.551Z,4.03
2019-05-05T23:26:44.649Z,3.90
2019-05-05T23:29:13.085Z,3.93
2019-05-05T23:31:41.546Z,4.00
2019-05-05T23:34:09.966Z,4.50
2019-05-05T23:36:38.399Z,4.17
2019-05-05T23:39:07.514Z,4.30
2019-05-05T23:41:36.512Z,4.43
2019-05-05T23:44:05.630Z,4.30
2019-05-05T23:46:34.794Z,4.40
2019-05-05T23:49:04.296Z,4.90
2019-05-05T23:51:34.648Z,4.40
2019-05-05T23:54:04.202Z,4.20
2019-05-05T23:56:34.776Z,4.57
2019-05-05T23:59:04.209Z,4.50
